Time;durP1;ratioP1;P1;durP2;ratioP2;P2;SDS_P1;SDS_P2;PMS_P1;PMS_P2;Temp;Humidity;BMP_temperature;BMP_pressure;BME280_temperature;BME280_humidity;BME280_pressure;Samples;Min_cycle;Max_cycle;Signal;HPM_P1;HPM_P2
2021/11/03 00:00:45;;;;;;;2.03;1.10;;;;;;;;;;5063572;28;20579;-66
2021/11/03 00:03:14;;;;;;;1.95;1.20;;;;;;;;;;5068574;28;20108;-65
2021/11/03 00:05:44;;;;;;;1.65;1.17;;;;;;;;;;5069305;28;20309;-65
2021/11/03 00:08:13;;;;;;;2.08;0.90;;;;;;;;;;5062132;28;20401;-65
2021/11/03 00:10:43;;;;;;;2.40;1.25;;;;;;;;;;5087788;28;20056;-65
2021/11/03 00:13:14;;;;;;;2.42;1.05;;;;;;;;;;5072504;28;20310;-65
2021/11/03 00:15:42;;;;;;;1.25;0.75;;;;;;;;;;5069548;28;20110;-66
2021/11/03 00:18:10;;;;;;;1.73;0.95;;;;;;;;;;5064443;28;20418;-66
2021/11/03 00:20:39;;;;;;;1.45;1.15;;;;;;;;;;5078137;28;20079;-65
2021/11/03 00:23:08;;;;;;;0.80;0.75;;;;;;;;;;5062142;28;20046;-65
2021/11/03 00:25:40;;;;;;;1.17;0.80;;;;;;;;;;5077913;28;20044;-66
2021/11/03 00:28:08;;;;;;;1.00;0.70;;;;;;;;;;5065624;28;20131;-65
2021/11/03 00:30:38;;;;;;;1.05;0.95;;;;;;;;;;5065548;28;20136;-65
2021/11/03 00:33:06;;;;;;;1.90;1.00;;;;;;;;;;5075633;28;20066;-66
2021/11/03 00:35:35;;;;;;;1.42;0.80;;;;;;;;;;5086947;28;20435;-66
2021/11/03 00:38:03;;;;;;;1.25;1.15;;;;;;;;;;5081912;28;20052;-66
2021/11/03 00:40:32;;;;;;;1.20;0.80;;;;;;;;;;5083626;28;20056;-66
2021/11/03 00:43:00;;;;;;;1.48;1.08;;;;;;;;;;5086009;28;20050;-65
2021/11/03 00:45:28;;;;;;;1.52;1.05;;;;;;;;;;5089814;28;20234;-65
2021/11/03 00:47:58;;;;;;;1.02;0.77;;;;;;;;;;5085900;28;20048;-65
2021/11/03 00:50:26;;;;;;;3.38;1.30;;;;;;;;;;5080582;28;20090;-65
2021/11/03 00:52:55;;;;;;;3.10;1.00;;;;;;;;;;5088691;28;20105;-65
2021/11/03 00:55:23;;;;;;;1.42;0.93;;;;;;;;;;5088044;28;20123;-66
2021/11/03 00:57:51;;;;;;;2.47;0.98;;;;;;;;;;5068779;28;20056;-66
2021/11/03 01:00:20;;;;;;;6.82;1.00;;;;;;;;;;5087706;28;20135;-65
2021/11/03 01:02:49;;;;;;;1.15;0.77;;;;;;;;;;5088493;28;20040;-65
2021/11/03 01:05:20;;;;;;;2.78;1.00;;;;;;;;;;5091178;28;20091;-65
2021/11/03 01:07:49;;;;;;;2.33;1.08;;;;;;;;;;5092827;28;20048;-65
2021/11/03 01:10:17;;;;;;;1.10;0.90;;;;;;;;;;5094439;28;20046;-65
2021/11/03 01:12:46;;;;;;;2.10;1.00;;;;;;;;;;5081916;28;20455;-65
2021/11/03 01:15:16;;;;;;;1.90;1.25;;;;;;;;;;5091310;28;20048;-65
2021/11/03 01:17:44;;;;;;;1.67;0.90;;;;;;;;;;5086549;28;20083;-66
2021/11/03 01:20:13;;;;;;;1.10;0.80;;;;;;;;;;5077114;28;20458;-65
2021/11/03 01:22:43;;;;;;;1.95;0.93;;;;;;;;;;5085774;28;20131;-65
2021/11/03 01:25:12;;;;;;;1.92;1.00;;;;;;;;;;5087702;28;20141;-65
2021/11/03 01:27:44;;;;;;;2.60;0.88;;;;;;;;;;4786681;28;10000696;-67
2021/11/03 01:30:14;;;;;;;1.45;0.80;;;;;;;;;;698099;28;10002061;-65
2021/11/03 01:32:42;;;;;;;1.98;0.80;;;;;;;;;;5063144;28;20469;-65
2021/11/03 01:35:11;;;;;;;3.90;1.20;;;;;;;;;;5070927;28;20556;-65
2021/11/03 01:37:40;;;;;;;1.80;1.10;;;;;;;;;;5066772;28;20040;-65
2021/11/03 01:40:11;;;;;;;0.98;0.88;;;;;;;;;;5072601;28;20036;-66
2021/11/03 01:42:39;;;;;;;2.38;0.80;;;;;;;;;;5065792;28;20519;-65
2021/11/03 01:45:09;;;;;;;0.68;0.60;;;;;;;;;;5064634;28;20124;-65
2021/11/03 01:47:43;;;;;;;2.65;1.10;;;;;;;;;;5064337;28;20091;-65
2021/11/03 01:50:14;;;;;;;0.95;0.70;;;;;;;;;;5063725;28;20041;-65
2021/11/03 01:52:43;;;;;;;1.70;0.77;;;;;;;;;;5071190;28;20434;-65
2021/11/03 01:55:13;;;;;;;1.00;0.73;;;;;;;;;;5072109;28;20341;-65
2021/11/03 01:57:42;;;;;;;2.60;0.80;;;;;;;;;;5064839;28;20055;-66
2021/11/03 02:00:13;;;;;;;0.80;0.63;;;;;;;;;;5062493;28;20087;-65
2021/11/03 02:02:41;;;;;;;0.82;0.80;;;;;;;;;;5070441;28;20132;-65
2021/11/03 02:05:10;;;;;;;1.02;0.80;;;;;;;;;;5068652;28;20555;-65
2021/11/03 02:07:39;;;;;;;1.58;1.10;;;;;;;;;;5068661;28;20077;-66
2021/11/03 02:10:08;;;;;;;0.75;0.60;;;;;;;;;;5071325;28;20091;-66
2021/11/03 02:12:37;;;;;;;2.53;0.90;;;;;;;;;;5071019;28;20125;-65
2021/11/03 02:15:07;;;;;;;2.95;0.80;;;;;;;;;;5066338;28;20091;-65
2021/11/03 02:17:35;;;;;;;1.05;0.80;;;;;;;;;;5068579;28;20051;-65
2021/11/03 02:20:06;;;;;;;2.42;0.80;;;;;;;;;;5068681;28;20051;-67
2021/11/03 02:22:37;;;;;;;1.63;0.90;;;;;;;;;;5063738;28;20552;-66
2021/11/03 02:25:08;;;;;;;2.90;0.80;;;;;;;;;;5065282;28;20067;-65
2021/11/03 02:27:38;;;;;;;1.98;0.98;;;;;;;;;;5065291;28;20080;-66
2021/11/03 02:30:07;;;;;;;1.13;0.73;;;;;;;;;;5069481;28;20525;-65
2021/11/03 02:32:37;;;;;;;1.27;0.60;;;;;;;;;;5065453;28;20354;-65
2021/11/03 02:35:06;;;;;;;1.08;0.70;;;;;;;;;;5071723;28;20452;-65
2021/11/03 02:37:39;;;;;;;2.25;1.00;;;;;;;;;;5067803;28;20041;-65
2021/11/03 02:40:12;;;;;;;1.10;0.85;;;;;;;;;;5068337;28;20055;-66
2021/11/03 02:42:43;;;;;;;1.15;0.77;;;;;;;;;;5064570;28;20037;-65
2021/11/03 02:45:14;;;;;;;1.13;0.70;;;;;;;;;;5068481;28;20543;-65
2021/11/03 02:47:42;;;;;;;0.60;0.57;;;;;;;;;;5062751;28;20072;-65
2021/11/03 02:50:11;;;;;;;1.17;0.75;;;;;;;;;;5070136;28;20076;-66
2021/11/03 02:52:39;;;;;;;1.40;0.70;;;;;;;;;;5070280;28;20067;-65
2021/11/03 02:55:11;;;;;;;0.98;0.68;;;;;;;;;;5063485;28;20063;-65
2021/11/03 02:57:39;;;;;;;1.80;0.85;;;;;;;;;;5055598;28;20123;-65
2021/11/03 03:00:10;;;;;;;4.47;0.75;;;;;;;;;;5070148;28;20049;-65
2021/11/03 03:02:38;;;;;;;0.77;0.60;;;;;;;;;;5070428;28;20120;-65
2021/11/03 03:05:07;;;;;;;0.80;0.60;;;;;;;;;;5064214;28;20063;-65
2021/11/03 03:07:35;;;;;;;1.50;0.77;;;;;;;;;;5070852;28;20048;-66
2021/11/03 03:10:04;;;;;;;1.50;0.70;;;;;;;;;;5069289;28;20534;-65
2021/11/03 03:12:35;;;;;;;1.17;0.68;;;;;;;;;;5070244;28;20120;-67
2021/11/03 03:15:03;;;;;;;0.65;0.60;;;;;;;;;;5058628;28;20407;-66
2021/11/03 03:17:31;;;;;;;1.35;0.70;;;;;;;;;;5069385;28;20184;-65
2021/11/03 03:19:59;;;;;;;1.85;1.00;;;;;;;;;;5062160;28;20049;-65
2021/11/03 03:22:28;;;;;;;1.00;0.57;;;;;;;;;;5069446;28;20048;-65
2021/11/03 03:24:56;;;;;;;0.65;0.52;;;;;;;;;;5069623;28;20502;-66
2021/11/03 03:27:24;;;;;;;2.67;0.98;;;;;;;;;;5070480;28;20044;-65
2021/11/03 03:29:54;;;;;;;0.90;0.75;;;;;;;;;;5069115;28;20043;-66
2021/11/03 03:32:23;;;;;;;3.50;0.80;;;;;;;;;;5063944;28;20074;-65
2021/11/03 03:34:51;;;;;;;1.17;0.63;;;;;;;;;;5070212;28;20384;-65
2021/11/03 03:37:19;;;;;;;0.68;0.63;;;;;;;;;;5070329;28;20083;-65
2021/11/03 03:39:51;;;;;;;1.58;1.08;;;;;;;;;;5070719;28;20262;-66
2021/11/03 03:42:20;;;;;;;1.50;0.90;;;;;;;;;;5069860;28;20071;-66
2021/11/03 03:44:49;;;;;;;1.45;0.90;;;;;;;;;;5069885;28;20135;-65
2021/11/03 03:47:18;;;;;;;1.80;0.90;;;;;;;;;;5069924;28;20055;-65
2021/11/03 03:49:47;;;;;;;1.45;1.17;;;;;;;;;;5062934;28;20048;-65
2021/11/03 03:52:15;;;;;;;2.17;1.10;;;;;;;;;;5069285;28;20474;-66
2021/11/03 03:54:43;;;;;;;3.13;1.30;;;;;;;;;;5069959;28;20462;-65
2021/11/03 03:57:11;;;;;;;2.97;1.20;;;;;;;;;;5069952;28;20140;-65
2021/11/03 03:59:40;;;;;;;1.48;1.15;;;;;;;;;;5070642;28;20091;-66
2021/11/03 04:02:08;;;;;;;1.95;1.02;;;;;;;;;;5070810;28;20139;-66
2021/11/03 04:04:38;;;;;;;1.27;0.95;;;;;;;;;;5054184;28;20060;-65
2021/11/03 04:07:06;;;;;;;2.20;1.10;;;;;;;;;;5078653;28;20134;-65
2021/11/03 04:09:34;;;;;;;4.07;1.00;;;;;;;;;;5077202;28;20090;-65
2021/11/03 04:12:03;;;;;;;3.55;1.35;;;;;;;;;;5072239;28;20046;-66
2021/11/03 04:14:31;;;;;;;1.92;1.13;;;;;;;;;;5059861;28;20570;-66
2021/11/03 04:16:59;;;;;;;4.13;1.38;;;;;;;;;;5057779;28;20044;-66
2021/11/03 04:19:28;;;;;;;1.85;1.00;;;;;;;;;;5079778;28;20090;-66
2021/11/03 04:21:57;;;;;;;2.08;1.25;;;;;;;;;;5059432;28;20144;-65
2021/11/03 04:24:25;;;;;;;1.58;0.93;;;;;;;;;;5068797;28;20044;-66
2021/11/03 04:26:54;;;;;;;2.65;1.42;;;;;;;;;;5066105;28;20057;-66
2021/11/03 04:29:22;;;;;;;2.15;1.17;;;;;;;;;;5053490;28;20055;-66
2021/11/03 04:31:51;;;;;;;2.08;1.13;;;;;;;;;;5065946;28;20151;-66
2021/11/03 04:34:20;;;;;;;2.67;1.10;;;;;;;;;;5058530;28;20146;-66
2021/11/03 04:36:48;;;;;;;4.25;1.20;;;;;;;;;;5071398;28;20127;-65
2021/11/03 04:39:18;;;;;;;3.17;1.42;;;;;;;;;;5071624;28;20091;-65
2021/11/03 04:41:46;;;;;;;2.53;1.15;;;;;;;;;;5073316;28;20056;-65
2021/11/03 04:44:15;;;;;;;3.92;1.00;;;;;;;;;;5077777;28;20067;-66
2021/11/03 04:46:43;;;;;;;3.22;1.20;;;;;;;;;;5068645;28;20136;-65
2021/11/03 04:49:11;;;;;;;2.55;1.35;;;;;;;;;;5083408;28;20412;-66
2021/11/03 04:51:40;;;;;;;1.30;1.10;;;;;;;;;;5059902;28;20124;-65
2021/11/03 04:54:08;;;;;;;2.45;1.40;;;;;;;;;;5084641;28;20451;-65
2021/11/03 04:56:38;;;;;;;3.50;1.30;;;;;;;;;;5054621;28;20580;-65
2021/11/03 04:59:07;;;;;;;2.40;1.30;;;;;;;;;;5084358;28;20044;-65
2021/11/03 05:01:35;;;;;;;3.22;1.30;;;;;;;;;;5073369;28;20142;-65
2021/11/03 05:04:04;;;;;;;3.10;1.52;;;;;;;;;;5063157;28;20441;-66
2021/11/03 05:06:35;;;;;;;2.38;1.50;;;;;;;;;;5072171;28;20044;-67
2021/11/03 05:09:05;;;;;;;2.22;1.02;;;;;;;;;;5070057;28;20045;-65
2021/11/03 05:11:33;;;;;;;2.22;1.38;;;;;;;;;;5072172;28;20068;-66
2021/11/03 05:14:03;;;;;;;1.70;1.20;;;;;;;;;;5062488;28;20072;-65
2021/11/03 05:16:31;;;;;;;2.88;1.38;;;;;;;;;;5070657;28;20075;-65
2021/11/03 05:19:00;;;;;;;1.77;1.27;;;;;;;;;;5073590;28;20067;-65
2021/11/03 05:21:29;;;;;;;3.00;1.55;;;;;;;;;;5072672;28;20500;-66
2021/11/03 05:23:57;;;;;;;1.83;1.30;;;;;;;;;;5066160;28;20049;-66
2021/11/03 05:26:26;;;;;;;2.75;1.67;;;;;;;;;;5065299;28;20063;-66
2021/11/03 05:28:57;;;;;;;2.35;1.42;;;;;;;;;;5069557;28;20308;-65
2021/11/03 05:31:26;;;;;;;2.67;1.70;;;;;;;;;;5071509;28;20175;-65
2021/11/03 05:33:55;;;;;;;4.80;1.40;;;;;;;;;;5067501;28;20463;-66
2021/11/03 05:36:26;;;;;;;4.45;1.58;;;;;;;;;;5072754;28;20072;-65
2021/11/03 05:38:54;;;;;;;4.00;2.20;;;;;;;;;;5074734;28;20127;-66
2021/11/03 05:41:23;;;;;;;3.60;1.77;;;;;;;;;;5072800;28;20500;-67
2021/11/03 05:43:51;;;;;;;6.90;1.77;;;;;;;;;;5061612;28;20132;-66
2021/11/03 05:46:34;;;;;;;3.85;1.88;;;;;;;;;;5057785;28;20148;-65
2021/11/03 05:49:09;;;;;;;2.95;1.73;;;;;;;;;;5071420;28;20054;-65
2021/11/03 05:51:37;;;;;;;5.43;2.38;;;;;;;;;;5071252;28;20127;-66
2021/11/03 05:54:06;;;;;;;3.67;1.98;;;;;;;;;;5066030;28;20463;-65
2021/11/03 05:56:35;;;;;;;4.20;2.20;;;;;;;;;;5072101;28;20048;-66
2021/11/03 05:59:03;;;;;;;3.05;1.92;;;;;;;;;;5068317;28;20045;-65
2021/11/03 06:01:32;;;;;;;3.40;1.80;;;;;;;;;;5070232;28;20105;-66
2021/11/03 06:04:00;;;;;;;3.47;2.05;;;;;;;;;;5069607;28;20044;-65
2021/11/03 06:06:30;;;;;;;3.25;1.90;;;;;;;;;;5071695;28;20087;-66
2021/11/03 06:08:58;;;;;;;4.80;2.22;;;;;;;;;;5069131;28;20124;-65
2021/11/03 06:11:28;;;;;;;5.07;2.38;;;;;;;;;;5071802;28;20061;-66
2021/11/03 06:13:56;;;;;;;3.80;2.03;;;;;;;;;;5063448;28;20526;-66
2021/11/03 06:16:25;;;;;;;3.97;1.58;;;;;;;;;;5076212;28;20499;-65
2021/11/03 06:18:53;;;;;;;4.28;1.92;;;;;;;;;;5064021;28;20045;-66
2021/11/03 06:21:22;;;;;;;4.35;1.98;;;;;;;;;;5070311;28;20131;-65
2021/11/03 06:23:51;;;;;;;3.05;2.05;;;;;;;;;;5071564;28;20150;-66
2021/11/03 06:26:20;;;;;;;3.08;1.77;;;;;;;;;;5061133;28;20076;-66
2021/11/03 06:28:49;;;;;;;2.85;1.90;;;;;;;;;;5066388;28;20075;-65
2021/11/03 06:31:17;;;;;;;3.28;1.98;;;;;;;;;;5066232;28;20065;-66
2021/11/03 06:33:45;;;;;;;4.90;2.30;;;;;;;;;;5070100;28;20110;-65
2021/11/03 06:36:16;;;;;;;3.53;2.20;;;;;;;;;;5077588;28;20053;-65
2021/11/03 06:38:45;;;;;;;4.15;1.65;;;;;;;;;;5055797;28;20132;-65
2021/11/03 06:41:16;;;;;;;5.15;1.95;;;;;;;;;;5064893;28;20039;-66
2021/11/03 06:43:46;;;;;;;2.70;1.90;;;;;;;;;;5062744;28;20418;-66
2021/11/03 06:46:14;;;;;;;3.72;2.03;;;;;;;;;;5078618;28;20087;-65
2021/11/03 06:48:43;;;;;;;5.68;2.28;;;;;;;;;;5066906;28;20056;-66
2021/11/03 06:51:11;;;;;;;2.30;1.60;;;;;;;;;;5069644;28;20576;-65
2021/11/03 06:53:40;;;;;;;3.97;1.80;;;;;;;;;;5063185;28;20438;-66
2021/11/03 06:56:08;;;;;;;2.88;1.80;;;;;;;;;;5062395;28;20059;-66
2021/11/03 06:58:38;;;;;;;3.17;1.98;;;;;;;;;;5064053;28;20129;-65
2021/11/03 07:01:08;;;;;;;5.40;2.60;;;;;;;;;;5065689;28;20080;-66
2021/11/03 07:03:39;;;;;;;3.35;2.15;;;;;;;;;;5057066;28;20696;-66
2021/11/03 07:06:07;;;;;;;3.78;2.22;;;;;;;;;;5063067;28;20431;-66
2021/11/03 07:08:36;;;;;;;4.80;2.28;;;;;;;;;;5064278;28;20051;-65
2021/11/03 07:11:04;;;;;;;5.88;2.25;;;;;;;;;;5063500;28;20098;-65
2021/11/03 07:13:34;;;;;;;6.35;2.78;;;;;;;;;;5060457;28;20063;-66
2021/11/03 07:16:04;;;;;;;5.57;2.60;;;;;;;;;;5065895;28;20131;-66
2021/11/03 07:18:33;;;;;;;4.03;2.50;;;;;;;;;;5067987;28;20128;-67
2021/11/03 07:21:01;;;;;;;3.70;2.38;;;;;;;;;;5068195;28;20051;-66
2021/11/03 07:23:30;;;;;;;4.07;2.63;;;;;;;;;;5062559;28;20395;-66
2021/11/03 07:25:59;;;;;;;2.75;1.95;;;;;;;;;;5065535;28;20071;-66
2021/11/03 07:28:27;;;;;;;4.97;2.30;;;;;;;;;;5065641;28;20087;-66
2021/11/03 07:30:55;;;;;;;3.47;2.00;;;;;;;;;;5064279;28;20040;-65
2021/11/03 07:33:25;;;;;;;3.85;2.20;;;;;;;;;;5072062;28;20135;-65
2021/11/03 07:35:53;;;;;;;4.38;2.15;;;;;;;;;;5065452;28;20485;-66
2021/11/03 07:38:22;;;;;;;4.47;2.25;;;;;;;;;;5072849;28;20128;-65
2021/11/03 07:40:52;;;;;;;3.58;2.13;;;;;;;;;;5072706;28;20483;-65
2021/11/03 07:43:21;;;;;;;3.88;1.65;;;;;;;;;;5064807;28;20169;-66
2021/11/03 07:45:50;;;;;;;3.45;1.90;;;;;;;;;;5062244;28;20083;-66
2021/11/03 07:48:19;;;;;;;3.85;2.00;;;;;;;;;;5068861;28;20483;-65
2021/11/03 07:50:51;;;;;;;3.53;2.13;;;;;;;;;;5069925;28;20056;-65
2021/11/03 07:53:21;;;;;;;2.33;2.08;;;;;;;;;;5069707;28;20051;-66
2021/11/03 07:55:51;;;;;;;4.32;2.28;;;;;;;;;;5070177;28;20079;-65
2021/11/03 07:58:21;;;;;;;2.60;1.90;;;;;;;;;;5071150;28;20040;-65
2021/11/03 08:00:50;;;;;;;5.20;2.42;;;;;;;;;;5072367;28;20427;-65
2021/11/03 08:03:19;;;;;;;3.63;2.25;;;;;;;;;;5053067;28;20065;-66
2021/11/03 08:05:51;;;;;;;5.38;2.85;;;;;;;;;;5071112;28;20557;-65
2021/11/03 08:08:21;;;;;;;2.25;1.80;;;;;;;;;;5065161;28;20102;-66
2021/11/03 08:10:53;;;;;;;5.00;2.15;;;;;;;;;;5081117;28;20089;-66
2021/11/03 08:13:22;;;;;;;3.40;1.90;;;;;;;;;;5073217;28;20132;-65
2021/11/03 08:15:52;;;;;;;6.22;2.08;;;;;;;;;;5074704;28;20076;-65
2021/11/03 08:18:23;;;;;;;7.10;2.13;;;;;;;;;;5067775;28;20049;-66
2021/11/03 08:20:52;;;;;;;3.45;1.98;;;;;;;;;;5065427;28;20094;-65
2021/11/03 08:23:21;;;;;;;3.63;1.92;;;;;;;;;;5073355;28;20064;-65
2021/11/03 08:25:49;;;;;;;2.97;1.85;;;;;;;;;;5074943;28;20052;-65
2021/11/03 08:28:18;;;;;;;4.22;2.00;;;;;;;;;;5072679;28;20045;-65
2021/11/03 08:30:48;;;;;;;11.55;2.05;;;;;;;;;;5073996;28;20053;-66
2021/11/03 08:33:18;;;;;;;3.35;1.80;;;;;;;;;;5072415;28;20060;-65
2021/11/03 08:35:49;;;;;;;2.65;1.83;;;;;;;;;;5075094;28;20040;-66
2021/11/03 08:38:21;;;;;;;4.53;1.95;;;;;;;;;;5064366;28;20438;-66
2021/11/03 08:40:50;;;;;;;4.60;2.15;;;;;;;;;;5066593;28;20052;-65
2021/11/03 08:43:33;;;;;;;4.50;2.20;;;;;;;;;;5072794;28;20420;-65
2021/11/03 08:46:02;;;;;;;3.85;1.88;;;;;;;;;;5057390;28;20072;-65
2021/11/03 08:48:31;;;;;;;3.83;1.73;;;;;;;;;;5068232;28;20068;-65
2021/11/03 08:50:59;;;;;;;4.57;1.58;;;;;;;;;;5068652;28;21580;-65
2021/11/03 08:53:29;;;;;;;4.60;2.50;;;;;;;;;;5067175;28;20044;-65
2021/11/03 08:55:58;;;;;;;6.65;2.17;;;;;;;;;;5073464;28;20045;-65
2021/11/03 08:58:28;;;;;;;3.25;1.80;;;;;;;;;;5072756;28;20500;-66
2021/11/03 09:00:57;;;;;;;1.98;1.50;;;;;;;;;;5052068;28;20497;-65
2021/11/03 09:03:27;;;;;;;6.15;2.05;;;;;;;;;;5072348;28;20071;-65
2021/11/03 09:05:55;;;;;;;4.13;1.67;;;;;;;;;;5073669;28;20493;-66
2021/11/03 09:08:24;;;;;;;4.15;1.67;;;;;;;;;;5071877;28;20151;-65
2021/11/03 09:10:56;;;;;;;3.15;1.85;;;;;;;;;;5075440;28;20480;-66
2021/11/03 09:13:27;;;;;;;3.75;1.90;;;;;;;;;;5068931;28;20060;-65
2021/11/03 09:15:56;;;;;;;2.03;1.50;;;;;;;;;;5070170;28;20062;-65
2021/11/03 09:18:25;;;;;;;1.52;1.17;;;;;;;;;;5072050;28;20068;-65
2021/11/03 09:20:54;;;;;;;2.05;1.17;;;;;;;;;;5071663;28;20037;-65
2021/11/03 09:23:23;;;;;;;2.22;1.23;;;;;;;;;;5072566;28;20052;-65
2021/11/03 09:25:54;;;;;;;4.53;1.50;;;;;;;;;;5064758;28;20052;-65
2021/11/03 09:28:23;;;;;;;2.35;1.48;;;;;;;;;;5064100;28;20483;-65
2021/11/03 09:30:52;;;;;;;2.20;1.23;;;;;;;;;;5064527;28;20459;-65
2021/11/03 09:33:21;;;;;;;3.47;1.20;;;;;;;;;;5066163;28;20281;-65
2021/11/03 09:35:51;;;;;;;1.92;0.90;;;;;;;;;;5076382;28;20048;-65
2021/11/03 09:38:21;;;;;;;2.45;1.20;;;;;;;;;;5068708;28;20052;-65
2021/11/03 09:40:52;;;;;;;2.45;1.33;;;;;;;;;;5077478;28;20109;-65
2021/11/03 09:43:31;;;;;;;5.53;0.90;;;;;;;;;;5063548;28;20060;-66
2021/11/03 09:46:00;;;;;;;2.22;1.10;;;;;;;;;;5065769;28;20056;-65
2021/11/03 09:48:30;;;;;;;1.95;1.00;;;;;;;;;;5064299;28;20041;-65
2021/11/03 09:51:01;;;;;;;2.80;1.20;;;;;;;;;;5058702;28;20076;-65
2021/11/03 09:53:31;;;;;;;5.55;1.25;;;;;;;;;;5058827;28;20051;-65
2021/11/03 09:56:00;;;;;;;2.10;1.13;;;;;;;;;;5064829;28;20470;-65
2021/11/03 09:58:35;;;;;;;2.47;1.10;;;;;;;;;;5067030;28;20048;-65
2021/11/03 10:01:07;;;;;;;1.98;1.20;;;;;;;;;;5067573;28;20102;-65
2021/11/03 10:03:41;;;;;;;2.17;1.15;;;;;;;;;;5071295;28;20573;-65
2021/11/03 10:06:14;;;;;;;3.10;1.15;;;;;;;;;;5067738;28;20052;-64
2021/11/03 10:08:43;;;;;;;3.17;1.15;;;;;;;;;;5067650;28;20048;-65
2021/11/03 10:11:17;;;;;;;1.60;0.90;;;;;;;;;;5065776;28;20044;-65
2021/11/03 10:13:47;;;;;;;5.43;1.13;;;;;;;;;;5067215;28;20492;-65
2021/11/03 10:16:26;;;;;;;6.00;1.10;;;;;;;;;;5070032;28;20514;-64
2021/11/03 10:18:59;;;;;;;4.93;1.00;;;;;;;;;;5062380;28;20091;-66
2021/11/03 10:21:35;;;;;;;1.98;1.00;;;;;;;;;;5067492;28;20762;-65
2021/11/03 10:24:06;;;;;;;3.20;1.02;;;;;;;;;;5065080;28;20099;-65
2021/11/03 10:26:48;;;;;;;2.33;1.10;;;;;;;;;;5070795;28;20044;-65
2021/11/03 10:29:19;;;;;;;4.07;0.93;;;;;;;;;;5066746;28;20541;-66
2021/11/03 10:31:49;;;;;;;1.98;1.08;;;;;;;;;;5068725;28;20084;-65
2021/11/03 10:34:20;;;;;;;1.77;1.25;;;;;;;;;;5065254;28;20056;-66
2021/11/03 10:36:49;;;;;;;2.47;1.23;;;;;;;;;;5070017;28;20119;-65
2021/11/03 10:39:22;;;;;;;2.20;1.15;;;;;;;;;;5041825;28;20152;-65
2021/11/03 10:41:55;;;;;;;2.60;1.10;;;;;;;;;;5068506;28;20103;-65
2021/11/03 10:44:25;;;;;;;7.30;1.10;;;;;;;;;;5062318;28;20044;-65
2021/11/03 10:46:55;;;;;;;2.70;1.25;;;;;;;;;;5064021;28;20080;-65
2021/11/03 10:49:28;;;;;;;3.58;1.05;;;;;;;;;;5059300;28;20414;-66
2021/11/03 10:52:03;;;;;;;5.22;1.10;;;;;;;;;;5049721;28;20454;-65
2021/11/03 10:54:39;;;;;;;1.42;0.85;;;;;;;;;;5061884;28;20135;-65
2021/11/03 10:57:17;;;;;;;3.00;0.85;;;;;;;;;;5068990;28;20044;-64
2021/11/03 10:59:49;;;;;;;2.20;1.25;;;;;;;;;;5060799;28;20096;-65
2021/11/03 11:02:22;;;;;;;1.88;1.15;;;;;;;;;;5069582;28;20075;-64
2021/11/03 11:04:52;;;;;;;1.58;1.02;;;;;;;;;;5062229;28;20056;-65
2021/11/03 11:07:24;;;;;;;2.47;1.00;;;;;;;;;;5051852;28;20072;-65
2021/11/03 11:09:56;;;;;;;1.35;0.88;;;;;;;;;;5067415;28;20481;-66
2021/11/03 11:12:27;;;;;;;1.50;0.90;;;;;;;;;;5067234;28;20052;-65
2021/11/03 11:14:58;;;;;;;2.30;0.73;;;;;;;;;;5066401;28;20045;-64
2021/11/03 11:17:29;;;;;;;2.60;1.13;;;;;;;;;;5063304;28;20131;-65
2021/11/03 11:20:04;;;;;;;2.55;1.08;;;;;;;;;;5068483;28;20051;-65
2021/11/03 11:22:39;;;;;;;2.90;1.05;;;;;;;;;;5058852;28;20040;-65
2021/11/03 11:25:12;;;;;;;2.93;1.00;;;;;;;;;;5074709;28;20056;-66
2021/11/03 11:27:45;;;;;;;3.38;1.20;;;;;;;;;;5057013;28;20431;-65
2021/11/03 11:30:17;;;;;;;3.38;0.82;;;;;;;;;;5067989;28;20128;-66
2021/11/03 11:32:49;;;;;;;1.85;0.98;;;;;;;;;;5063794;28;20124;-64
2021/11/03 11:35:21;;;;;;;2.25;1.02;;;;;;;;;;5065882;28;20122;-65
2021/11/03 11:37:53;;;;;;;;;;;;;;;;;;5068254;28;20048;-66
2021/11/03 11:40:25;;;;;;;2.22;1.13;;;;;;;;;;5068971;28;20450;-65
2021/11/03 11:42:55;;;;;;;5.32;1.10;;;;;;;;;;5065928;28;20075;-65
2021/11/03 11:45:26;;;;;;;1.05;0.70;;;;;;;;;;5056840;28;20129;-66
2021/11/03 11:47:57;;;;;;;1.58;0.98;;;;;;;;;;5062516;28;20079;-65
2021/11/03 11:50:28;;;;;;;1.10;0.90;;;;;;;;;;5062236;28;20072;-65
2021/11/03 11:52:59;;;;;;;2.10;1.13;;;;;;;;;;5057092;28;20123;-65
2021/11/03 11:55:28;;;;;;;3.08;0.90;;;;;;;;;;5068144;28;20415;-64
2021/11/03 11:58:15;;;;;;;1.40;0.85;;;;;;;;;;5066887;28;20090;-65
2021/11/03 12:01:05;;;;;;;3.95;1.30;;;;;;;;;;5066485;28;20056;-65
2021/11/03 12:03:34;;;;;;;1.85;1.20;;;;;;;;;;5069640;28;20648;-65
2021/11/03 12:06:08;;;;;;;2.53;1.23;;;;;;;;;;5066181;28;20099;-65
2021/11/03 12:08:58;;;;;;;2.20;0.95;;;;;;;;;;5073141;28;20095;-65
2021/11/03 12:11:27;;;;;;;1.80;0.85;;;;;;;;;;5071509;28;20052;-65
2021/11/03 12:14:00;;;;;;;1.70;1.02;;;;;;;;;;5066826;28;20211;-64
2021/11/03 12:16:35;;;;;;;5.32;1.27;;;;;;;;;;5061671;28;20566;-65
2021/11/03 12:19:07;;;;;;;3.03;1.10;;;;;;;;;;5066602;28;20056;-64
2021/11/03 12:21:40;;;;;;;1.92;1.20;;;;;;;;;;5072699;28;20488;-65
2021/11/03 12:24:27;;;;;;;2.17;1.17;;;;;;;;;;5060940;28;20132;-64
2021/11/03 12:27:15;;;;;;;2.47;1.30;;;;;;;;;;5064347;28;20140;-65
2021/11/03 12:29:44;;;;;;;5.18;1.58;;;;;;;;;;5070539;28;20068;-64
2021/11/03 12:32:29;;;;;;;4.45;1.95;;;;;;;;;;5072244;28;20403;-65
2021/11/03 12:35:35;;;;;;;4.28;1.98;;;;;;;;;;5055897;28;20089;-65
2021/11/03 12:38:23;;;;;;;5.47;2.00;;;;;;;;;;5069230;28;20519;-64
2021/11/03 12:40:52;;;;;;;4.93;2.05;;;;;;;;;;5060698;28;20075;-64
2021/11/03 12:43:22;;;;;;;6.65;2.25;;;;;;;;;;5061325;28;20072;-64
2021/11/03 12:46:00;;;;;;;5.57;2.53;;;;;;;;;;5069368;28;20060;-66
2021/11/03 12:48:32;;;;;;;5.88;2.53;;;;;;;;;;5070247;28;20048;-65
2021/11/03 12:51:00;;;;;;;4.68;2.60;;;;;;;;;;5060280;28;20551;-64
2021/11/03 12:53:30;;;;;;;6.47;2.63;;;;;;;;;;5069277;28;20450;-64
2021/11/03 12:56:01;;;;;;;3.90;2.30;;;;;;;;;;5065135;28;20132;-65
2021/11/03 12:58:34;;;;;;;6.63;3.13;;;;;;;;;;5074666;28;20052;-64
2021/11/03 13:01:04;;;;;;;11.27;3.28;;;;;;;;;;5074127;28;20132;-65
2021/11/03 13:03:35;;;;;;;6.50;2.22;;;;;;;;;;5072244;28;20056;-64
2021/11/03 13:06:06;;;;;;;5.00;2.80;;;;;;;;;;5071971;28;20068;-64
2021/11/03 13:08:40;;;;;;;4.55;2.42;;;;;;;;;;5065262;28;20066;-65
2021/11/03 13:11:17;;;;;;;5.93;2.55;;;;;;;;;;5066220;28;20488;-64
2021/11/03 13:13:46;;;;;;;4.57;3.00;;;;;;;;;;5070407;28;20048;-64
2021/11/03 13:16:17;;;;;;;7.70;2.72;;;;;;;;;;5072916;28;20128;-64
2021/11/03 13:18:50;;;;;;;6.70;2.60;;;;;;;;;;5073172;28;20048;-65
2021/11/03 13:21:26;;;;;;;4.60;2.28;;;;;;;;;;5065422;28;20102;-64
2021/11/03 13:23:58;;;;;;;4.40;2.60;;;;;;;;;;5068248;28;20491;-65
2021/11/03 13:26:28;;;;;;;3.95;2.45;;;;;;;;;;5054811;28;20056;-65
2021/11/03 13:28:58;;;;;;;6.85;2.83;;;;;;;;;;5065180;28;20515;-65
2021/11/03 13:31:31;;;;;;;6.57;2.45;;;;;;;;;;5076938;28;20130;-64
2021/11/03 13:34:10;;;;;;;7.30;2.53;;;;;;;;;;5074332;28;20073;-64
2021/11/03 13:36:40;;;;;;;6.13;2.55;;;;;;;;;;5072714;28;20079;-64
2021/11/03 13:39:22;;;;;;;4.63;2.30;;;;;;;;;;5072428;28;20068;-64
2021/11/03 13:41:51;;;;;;;4.13;2.17;;;;;;;;;;5071409;28;20102;-64
2021/11/03 13:44:20;;;;;;;6.90;2.70;;;;;;;;;;5066233;28;20129;-64
2021/11/03 13:46:50;;;;;;;4.40;2.45;;;;;;;;;;5071525;28;20500;-64
2021/11/03 13:49:21;;;;;;;6.05;2.67;;;;;;;;;;5055800;28;20037;-64
2021/11/03 13:51:53;;;;;;;4.38;2.53;;;;;;;;;;5072039;28;20072;-65
2021/11/03 13:54:24;;;;;;;5.47;2.10;;;;;;;;;;5071648;28;20077;-65
2021/11/03 13:56:53;;;;;;;5.25;2.20;;;;;;;;;;5065673;28;20049;-64
2021/11/03 13:59:24;;;;;;;4.10;2.00;;;;;;;;;;5061184;28;20053;-65
2021/11/03 14:01:55;;;;;;;3.38;2.00;;;;;;;;;;5067044;28;20399;-64
2021/11/03 14:04:35;;;;;;;5.45;2.40;;;;;;;;;;5069105;28;20056;-64
2021/11/03 14:07:15;;;;;;;6.10;2.47;;;;;;;;;;5067894;28;20075;-65
2021/11/03 14:09:43;;;;;;;5.47;2.20;;;;;;;;;;5053648;28;20040;-65
2021/11/03 14:12:12;;;;;;;5.00;2.67;;;;;;;;;;5063815;28;20140;-64
2021/11/03 14:14:40;;;;;;;4.13;2.47;;;;;;;;;;5068460;28;20063;-65
2021/11/03 14:17:20;;;;;;;7.85;2.60;;;;;;;;;;5064297;28;20139;-65
2021/11/03 14:19:53;;;;;;;7.78;2.28;;;;;;;;;;5063474;28;20080;-65
2021/11/03 14:22:22;;;;;;;5.30;2.47;;;;;;;;;;5054117;28;20489;-65
2021/11/03 14:24:51;;;;;;;7.82;2.88;;;;;;;;;;5069481;28;20048;-66
2021/11/03 14:27:35;;;;;;;5.38;2.80;;;;;;;;;;5067597;28;20051;-66
2021/11/03 14:30:03;;;;;;;4.40;2.90;;;;;;;;;;5060657;28;20267;-65
2021/11/03 14:32:33;;;;;;;6.53;2.70;;;;;;;;;;5059408;28;20051;-65
2021/11/03 14:35:04;;;;;;;4.85;2.80;;;;;;;;;;5055065;28;20508;-65
2021/11/03 14:37:33;;;;;;;7.50;2.75;;;;;;;;;;5063571;28;20049;-64
2021/11/03 14:40:01;;;;;;;5.82;2.83;;;;;;;;;;5067943;28;20407;-65
2021/11/03 14:42:30;;;;;;;4.78;3.15;;;;;;;;;;5062109;28;22777;-65
2021/11/03 14:44:58;;;;;;;9.15;3.63;;;;;;;;;;5067240;28;20080;-65
2021/11/03 14:47:28;;;;;;;6.13;2.38;;;;;;;;;;5068077;28;20060;-65
2021/11/03 14:49:59;;;;;;;4.63;2.80;;;;;;;;;;5069521;28;20045;-65
2021/11/03 14:52:33;;;;;;;5.45;2.63;;;;;;;;;;5064622;28;20090;-65
2021/11/03 14:55:06;;;;;;;5.03;2.58;;;;;;;;;;5071106;28;20045;-65
2021/11/03 14:57:34;;;;;;;4.55;2.58;;;;;;;;;;5069443;28;20048;-65
2021/11/03 15:00:03;;;;;;;7.00;2.67;;;;;;;;;;5058000;28;20568;-65
2021/11/03 15:02:33;;;;;;;8.82;2.92;;;;;;;;;;5056458;28;20463;-66